createdAt,value
2023-04-01T00:02:03.466Z,80.95
2023-04-01T00:04:31.553Z,82.08
2023-04-01T00:07:00.583Z,81.65
2023-04-01T00:09:29.959Z,81.11
2023-04-01T00:11:57.558Z,81.17
2023-04-01T00:14:25.513Z,81.12
2023-04-01T00:16:53.132Z,82.22
2023-04-01T00:19:20.938Z,81.95
2023-04-01T00:21:48.444Z,81.03
2023-04-01T00:24:17.680Z,81.13
2023-04-01T00:26:45.081Z,80.76
2023-04-01T00:29:12.924Z,80.53
2023-04-01T00:31:40.522Z,81.01
2023-04-01T00:34:08.247Z,81.51
2023-04-01T00:36:35.807Z,81.28
2023-04-01T00:39:03.811Z,81.36
2023-04-01T00:41:32.626Z,80.78
2023-04-01T00:44:22.135Z,80.37
2023-04-01T00:46:49.607Z,81.28
2023-04-01T00:49:20.540Z,81.22
2023-04-01T00:51:51.112Z,81.23
2023-04-01T00:54:22.112Z,81.30
2023-04-01T00:56:54.538Z,82.19
2023-04-01T00:59:25.709Z,82.68
2023-04-01T01:01:53.513Z,82.63
2023-04-01T01:04:26.265Z,82.42
2023-04-01T01:07:04.246Z,83.01
2023-04-01T01:09:41.006Z,83.29
2023-04-01T01:12:14.597Z,82.76
2023-04-01T01:14:54.440Z,83.47
2023-04-01T01:17:30.560Z,82.73
2023-04-01T01:20:31.001Z,82.78
2023-04-01T01:23:19.404Z,82.64
2023-04-01T01:25:57.808Z,82.90
2023-04-01T01:28:40.358Z,83.42
2023-04-01T01:31:18.606Z,83.44
2023-04-01T01:33:56.767Z,83.10
2023-04-01T01:36:27.978Z,82.95
2023-04-01T01:38:57.368Z,82.83
2023-04-01T01:41:27.774Z,82.94
2023-04-01T01:43:57.576Z,82.92
2023-04-01T01:46:29.053Z,82.80
2023-04-01T01:48:58.242Z,83.01
2023-04-01T01:51:28.948Z,82.65
2023-04-01T01:53:56.715Z,82.35
2023-04-01T01:56:29.260Z,81.87
2023-04-01T01:59:02.457Z,81.79
2023-04-01T02:01:34.290Z,81.64
2023-04-01T02:04:01.816Z,81.37
2023-04-01T02:06:35.654Z,81.24
2023-04-01T02:09:05.093Z,81.19
2023-04-01T02:11:37.673Z,81.40
2023-04-01T02:14:09.359Z,81.86
2023-04-01T02:16:43.065Z,81.60
2023-04-01T02:19:13.422Z,81.87
2023-04-01T02:21:44.575Z,81.53
2023-04-01T02:24:15.923Z,81.39
2023-04-01T02:26:45.865Z,81.77
2023-04-01T02:29:14.269Z,81.88
2023-04-01T02:31:43.685Z,81.81
2023-04-01T02:34:11.200Z,82.12
2023-04-01T02:36:39.502Z,82.05
2023-04-01T02:39:09.745Z,82.30
2023-04-01T02:41:40.894Z,82.08
2023-04-01T02:44:09.058Z,81.52
2023-04-01T02:46:37.733Z,81.41
2023-04-01T02:49:05.792Z,81.01
2023-04-01T02:51:33.958Z,81.09
2023-04-01T02:54:01.576Z,81.05
2023-04-01T02:56:30.852Z,81.46
2023-04-01T02:58:58.316Z,81.70
2023-04-01T03:01:26.351Z,82.59
2023-04-01T03:03:54.059Z,83.35
2023-04-01T03:06:22.237Z,83.12
2023-04-01T03:08:49.708Z,82.73
2023-04-01T03:11:17.574Z,83.43
2023-04-01T03:13:46.382Z,84.26
2023-04-01T03:16:14.329Z,84.55
2023-04-01T03:18:41.849Z,84.91
2023-04-01T03:21:18.037Z,84.91
2023-04-01T03:23:45.614Z,84.81
2023-04-01T03:26:14.262Z,84.04
2023-04-01T03:28:41.742Z,84.53
2023-04-01T03:31:11.751Z,85.08
2023-04-01T03:33:39.490Z,85.22
2023-04-01T03:36:08.158Z,85.09
2023-04-01T03:38:36.147Z,85.74
2023-04-01T03:41:04.301Z,86.46
2023-04-01T03:43:31.843Z,86.19
2023-04-01T03:45:59.723Z,85.56
2023-04-01T03:48:28.798Z,86.35
2023-04-01T03:50:57.341Z,87.23
2023-04-01T03:53:24.818Z,87.32
2023-04-01T03:55:53.165Z,87.50
2023-04-01T03:58:20.903Z,87.69
2023-04-01T04:00:48.975Z,88.38
2023-04-01T04:03:16.596Z,87.59
2023-04-01T04:05:51.258Z,87.63
2023-04-01T04:08:19.418Z,87.91
2023-04-01T04:10:47.664Z,87.73
2023-04-01T04:13:15.095Z,89.06
2023-04-01T04:15:43.333Z,89.48
2023-04-01T04:18:10.887Z,88.93
2023-04-01T04:20:45.336Z,88.50
2023-04-01T04:23:14.586Z,88.27
2023-04-01T04:25:42.578Z,87.45
2023-04-01T04:28:10.161Z,87.21
2023-04-01T04:30:38.096Z,87.32
2023-04-01T04:33:06.265Z,88.24
2023-04-01T04:35:34.737Z,89.13
2023-04-01T04:38:02.405Z,89.20
2023-04-01T04:40:32.214Z,89.21
2023-04-01T04:42:59.724Z,89.43
2023-04-01T04:45:27.945Z,88.93
2023-04-01T04:47:55.479Z,88.92
2023-04-01T04:50:24.580Z,88.82
2023-04-01T04:52:52.511Z,88.75
2023-04-01T04:55:20.942Z,88.84
2023-04-01T04:57:50.119Z,89.46
2023-04-01T05:00:18.490Z,90.45
2023-04-01T05:02:46.241Z,90.50
2023-04-01T05:05:16.775Z,90.70
2023-04-01T05:07:44.467Z,91.04
2023-04-01T05:10:17.286Z,91.76
2023-04-01T05:12:48.400Z,91.77
2023-04-01T05:15:19.922Z,89.96
2023-04-01T05:17:50.024Z,89.94
2023-04-01T05:20:26.106Z,89.61
2023-04-01T05:22:58.628Z,89.95
2023-04-01T05:25:27.753Z,89.80
2023-04-01T05:30:46.514Z,89.95
2023-04-01T05:33:17.000Z,90.03
2023-04-01T05:35:51.317Z,90.12
2023-04-01T05:38:31.652Z,90.17
2023-04-01T05:41:05.719Z,89.45
2023-04-01T05:43:37.376Z,89.22
2023-04-01T05:46:08.444Z,89.00
2023-04-01T05:48:36.762Z,88.51
2023-04-01T05:51:13.980Z,88.68
2023-04-01T05:53:42.179Z,89.91
2023-04-01T05:56:12.175Z,89.32
2023-04-01T05:58:43.491Z,90.29
2023-04-01T06:01:16.458Z,90.66
2023-04-01T06:03:47.828Z,90.66
2023-04-01T06:06:26.596Z,90.03
2023-04-01T06:09:15.612Z,89.53
2023-04-01T06:12:00.050Z,88.42
2023-04-01T06:14:42.073Z,89.67
2023-04-01T06:17:28.719Z,89.13
2023-04-01T06:20:06.238Z,88.72
2023-04-01T06:23:05.565Z,89.86
2023-04-01T06:25:52.432Z,90.04
2023-04-01T06:29:20.036Z,89.77
2023-04-01T06:32:14.004Z,90.32
2023-04-01T06:35:14.964Z,90.06
2023-04-01T06:38:15.579Z,90.23
2023-04-01T06:41:13.458Z,90.46
2023-04-01T06:43:52.063Z,90.00
2023-04-01T06:46:29.780Z,89.13
2023-04-01T06:49:22.932Z,90.45
2023-04-01T06:52:00.057Z,89.43
2023-04-01T06:54:32.591Z,90.25
2023-04-01T06:57:10.369Z,89.63
2023-04-01T06:59:39.300Z,89.98
2023-04-01T07:02:23.355Z,89.51
2023-04-01T07:04:55.670Z,89.78
2023-04-01T07:07:32.210Z,89.50
2023-04-01T07:10:04.356Z,89.32
2023-04-01T07:12:43.977Z,88.81
2023-04-01T07:15:20.071Z,89.72
2023-04-01T07:17:53.880Z,89.32
2023-04-01T07:20:26.943Z,89.21
2023-04-01T07:22:59.463Z,89.50
2023-04-01T07:25:30.647Z,89.26
2023-04-01T07:28:04.861Z,88.78
2023-04-01T07:30:45.238Z,88.54
2023-04-01T07:33:18.072Z,89.17
2023-04-01T07:35:51.864Z,88.45
2023-04-01T07:38:29.459Z,87.29
2023-04-01T07:41:06.233Z,87.28
2023-04-01T07:43:56.791Z,87.65
2023-04-01T07:46:41.947Z,87.39
2023-04-01T07:49:17.902Z,87.25
2023-04-01T07:51:56.588Z,87.51
2023-04-01T07:54:32.463Z,88.04
2023-04-01T07:57:04.604Z,86.65
2023-04-01T07:59:42.768Z,87.19
2023-04-01T08:02:21.842Z,86.87
2023-04-01T08:05:01.759Z,87.15
2023-04-01T08:07:37.443Z,86.16
2023-04-01T08:10:12.665Z,86.54
2023-04-01T08:12:47.862Z,85.91
2023-04-01T08:15:24.575Z,85.83
2023-04-01T08:18:02.872Z,85.49
2023-04-01T08:20:38.780Z,85.02
2023-04-01T08:23:12.665Z,83.66
2023-04-01T08:25:47.053Z,83.76
2023-04-01T08:28:21.775Z,83.71
2023-04-01T08:30:55.343Z,83.50
2023-04-01T08:33:27.476Z,84.78
2023-04-01T08:36:00.426Z,83.56
2023-04-01T08:38:32.472Z,83.55
2023-04-01T08:41:07.683Z,82.84
2023-04-01T08:44:04.654Z,83.10
2023-04-01T08:47:07.054Z,83.10
2023-04-01T08:49:57.633Z,82.41
2023-04-01T08:52:34.770Z,82.22
2023-04-01T08:55:37.650Z,82.88
2023-04-01T08:58:43.814Z,82.35
2023-04-01T09:01:26.539Z,81.45
2023-04-01T09:04:26.660Z,80.28
2023-04-01T09:07:07.605Z,82.10
2023-04-01T09:10:02.699Z,80.11
2023-04-01T09:12:47.596Z,78.68
2023-04-01T09:15:48.541Z,78.75
2023-04-01T09:18:33.530Z,78.96
2023-04-01T09:21:20.916Z,78.61
2023-04-01T09:24:21.455Z,76.99
2023-04-01T09:27:06.659Z,78.03
2023-04-01T09:29:48.709Z,77.67
2023-04-01T09:32:35.980Z,78.36
2023-04-01T09:35:21.334Z,76.29
2023-04-01T09:37:59.622Z,76.30
2023-04-01T09:40:38.207Z,75.92
2023-04-01T09:43:22.810Z,76.56
2023-04-01T09:46:03.605Z,77.85
2023-04-01T09:48:56.346Z,77.35
2023-04-01T09:51:35.055Z,77.40
2023-04-01T09:54:19.298Z,76.10
2023-04-01T09:57:13.497Z,74.25
2023-04-01T10:00:29.655Z,73.94
2023-04-01T10:03:34.083Z,74.95
2023-04-01T10:06:28.695Z,75.28
2023-04-01T10:09:44.634Z,75.21
2023-04-01T10:12:49.740Z,75.63
2023-04-01T10:15:46.043Z,76.30
2023-04-01T10:18:40.257Z,76.48
2023-04-01T10:22:22.022Z,78.91
2023-04-01T10:25:20.046Z,77.29
2023-04-01T10:35:14.572Z,76.84
2023-04-01T10:38:20.887Z,77.27
2023-04-01T10:41:24.994Z,77.50
2023-04-01T10:44:38.785Z,76.63
2023-04-01T10:47:50.184Z,77.70
2023-04-01T10:50:51.967Z,77.64
2023-04-01T10:53:44.462Z,76.59
2023-04-01T10:56:35.674Z,75.07
2023-04-01T10:59:27.867Z,72.68
2023-04-01T11:02:41.123Z,72.50
2023-04-01T11:05:57.782Z,72.54
2023-04-01T11:13:20.767Z,70.04
2023-04-01T11:16:30.827Z,69.82
2023-04-01T11:19:51.625Z,69.74
2023-04-01T11:22:42.985Z,70.33
2023-04-01T11:25:30.814Z,69.81
2023-04-01T11:28:26.032Z,70.47
2023-04-01T11:31:22.290Z,69.61
2023-04-01T11:33:58.312Z,69.34
2023-04-01T11:36:38.485Z,67.90
2023-04-01T11:39:19.737Z,68.13
2023-04-01T11:41:57.241Z,69.44
2023-04-01T11:44:31.721Z,70.73
2023-04-01T11:47:29.210Z,71.60
2023-04-01T11:50:13.502Z,72.27
2023-04-01T11:53:06.684Z,74.70
2023-04-01T11:55:50.372Z,73.68
2023-04-01T12:10:15.468Z,68.77
2023-04-01T12:13:00.830Z,67.57
2023-04-01T12:15:38.181Z,64.82
2023-04-01T12:18:18.985Z,63.51
2023-04-01T12:20:52.126Z,61.73
2023-04-01T12:23:46.876Z,62.94
2023-04-01T12:26:46.712Z,60.82
2023-04-01T12:29:37.629Z,61.65
2023-04-01T12:32:13.742Z,59.20
2023-04-01T12:34:51.757Z,59.22
2023-04-01T12:37:27.567Z,59.55
2023-04-01T12:40:17.503Z,58.36
2023-04-01T12:43:00.124Z,64.40
2023-04-01T12:45:34.675Z,64.38
2023-04-01T12:48:31.152Z,65.75
2023-04-01T12:51:26.691Z,66.31
2023-04-01T12:54:27.700Z,68.68
2023-04-01T12:57:13.907Z,69.40
2023-04-01T13:00:14.722Z,71.32
2023-04-01T13:03:07.553Z,71.69
2023-04-01T13:06:13.347Z,74.34
2023-04-01T13:08:56.310Z,75.35
2023-04-01T13:11:37.972Z,76.48
2023-04-01T13:14:32.045Z,75.60
2023-04-01T13:17:08.265Z,76.36
2023-04-01T13:20:01.970Z,76.35
2023-04-01T13:22:45.341Z,76.21
2023-04-01T13:25:23.937Z,76.42
2023-04-01T13:27:57.682Z,76.45
2023-04-01T13:30:31.957Z,77.10
2023-04-01T13:33:06.065Z,77.99
2023-04-01T13:35:44.986Z,77.76
2023-04-01T13:38:40.692Z,75.70
2023-04-01T13:41:19.907Z,75.63
2023-04-01T13:43:51.606Z,75.10
2023-04-01T13:46:49.302Z,76.84
2023-04-01T13:49:46.234Z,77.03
2023-04-01T13:52:57.187Z,78.26
2023-04-01T13:55:54.607Z,76.90
2023-04-01T13:58:48.901Z,77.08
2023-04-01T14:01:24.864Z,76.92
2023-04-01T14:04:13.716Z,76.62
2023-04-01T14:06:55.992Z,76.00
2023-04-01T14:09:43.918Z,76.31
2023-04-01T14:12:20.738Z,76.52
2023-04-01T14:15:06.970Z,74.82
2023-04-01T14:17:53.537Z,72.63
2023-04-01T14:20:31.443Z,72.56
2023-04-01T14:23:14.173Z,74.02
2023-04-01T14:26:08.960Z,73.96
2023-04-01T14:28:43.569Z,71.48
2023-04-01T14:31:40.104Z,70.27
2023-04-01T14:34:24.557Z,68.63
2023-04-01T14:37:04.542Z,68.32
2023-04-01T14:39:51.086Z,66.68
2023-04-01T14:43:06.476Z,67.19
2023-04-01T14:45:56.397Z,67.23
2023-04-01T14:48:30.004Z,66.29
2023-04-01T14:51:05.794Z,66.86
2023-04-01T14:53:39.101Z,67.05
2023-04-01T14:56:06.745Z,66.68
2023-04-01T14:58:46.944Z,66.33
2023-04-01T15:01:36.588Z,65.38
2023-04-01T15:04:24.117Z,65.17
2023-04-01T15:07:04.259Z,64.80
2023-04-01T15:09:44.619Z,64.20
2023-04-01T15:12:24.676Z,65.53
2023-04-01T15:15:10.995Z,66.98
2023-04-01T15:17:50.603Z,66.39
2023-04-01T15:20:43.204Z,66.90
2023-04-01T15:23:23.430Z,67.62
2023-04-01T15:26:12.608Z,67.78
2023-04-01T15:28:45.456Z,68.59
2023-04-01T15:31:20.220Z,68.50
2023-04-01T15:34:08.208Z,69.33
2023-04-01T15:36:44.343Z,70.52
2023-04-01T15:39:15.891Z,69.51
2023-04-01T15:41:54.423Z,69.64
2023-04-01T15:44:49.528Z,69.65
2023-04-01T15:47:40.421Z,70.62
2023-04-01T15:50:56.218Z,70.74
2023-04-01T15:53:37.408Z,70.74
2023-04-01T15:56:21.465Z,71.48
2023-04-01T15:59:00.859Z,71.73
2023-04-01T16:01:38.643Z,72.17
2023-04-01T16:04:24.881Z,71.61
2023-04-01T16:07:18.505Z,71.87
2023-04-01T16:10:05.718Z,71.64
2023-04-01T16:12:50.994Z,71.48
2023-04-01T16:15:28.509Z,72.15
2023-04-01T16:18:19.323Z,71.84
2023-04-01T16:20:54.173Z,72.21
2023-04-01T16:23:28.471Z,73.31
2023-04-01T16:26:06.779Z,74.34
2023-04-01T16:28:40.251Z,74.49
2023-04-01T16:31:39.475Z,74.98
2023-04-01T16:34:30.422Z,74.64
2023-04-01T16:37:17.908Z,74.81
2023-04-01T16:39:53.555Z,74.40
2023-04-01T16:42:35.372Z,73.11
2023-04-01T16:45:18.129Z,72.63
2023-04-01T16:47:51.096Z,71.93
2023-04-01T16:50:22.349Z,71.95
2023-04-01T16:53:03.379Z,71.72
2023-04-01T16:56:23.004Z,71.82
2023-04-01T17:02:25.126Z,70.86
2023-04-01T17:04:59.758Z,71.00
2023-04-01T17:07:39.659Z,70.69
2023-04-01T17:10:32.809Z,70.91
2023-04-01T17:13:34.052Z,70.49
2023-04-01T17:16:17.094Z,71.07
2023-04-01T17:18:54.846Z,71.33
2023-04-01T17:21:28.984Z,71.23
2023-04-01T17:24:10.243Z,71.06
2023-04-01T17:26:48.354Z,70.61
2023-04-01T17:29:25.142Z,70.38
2023-04-01T17:32:08.817Z,70.38
2023-04-01T17:34:55.536Z,71.89
2023-04-01T17:37:37.724Z,72.60
2023-04-01T17:40:29.688Z,72.36
2023-04-01T17:43:07.320Z,71.65
2023-04-01T17:45:43.556Z,72.34
2023-04-01T17:48:22.523Z,72.96
2023-04-01T17:51:05.298Z,72.91
2023-04-01T17:53:48.691Z,73.59
2023-04-01T17:56:29.587Z,73.45
2023-04-01T17:59:05.874Z,73.15
2023-04-01T18:01:46.836Z,73.24
2023-04-01T18:04:44.105Z,72.93
2023-04-01T18:07:38.329Z,74.26
2023-04-01T18:10:24.867Z,75.05
2023-04-01T18:13:17.827Z,74.54
2023-04-01T18:15:53.511Z,74.20
2023-04-01T18:18:39.191Z,73.65
2023-04-01T18:21:19.604Z,73.57
2023-04-01T18:24:01.684Z,73.47
2023-04-01T18:26:33.298Z,73.14
2023-04-01T18:29:12.186Z,73.69
2023-04-01T18:31:46.294Z,73.97
2023-04-01T18:34:19.684Z,74.05
2023-04-01T18:36:54.426Z,73.76
2023-04-01T18:39:31.657Z,73.08
2023-04-01T18:42:09.532Z,73.91
2023-04-01T18:44:46.968Z,75.87
2023-04-01T18:47:26.379Z,75.67
2023-04-01T18:50:00.594Z,75.48
2023-04-01T18:52:36.224Z,77.56
2023-04-01T18:55:36.987Z,78.69
2023-04-01T18:58:20.323Z,80.90
2023-04-01T19:00:56.671Z,82.88
2023-04-01T19:03:32.662Z,82.80
2023-04-01T19:06:14.599Z,82.98
2023-04-01T19:08:46.498Z,83.01
2023-04-01T19:11:24.391Z,82.79
2023-04-01T19:14:00.512Z,83.67
2023-04-01T19:16:44.995Z,84.62
2023-04-01T19:19:42.660Z,85.18
2023-04-01T19:22:32.406Z,85.79
2023-04-01T19:25:23.808Z,86.43
2023-04-01T19:27:52.913Z,85.65
2023-04-01T19:30:33.182Z,84.93
2023-04-01T19:33:14.073Z,85.56
2023-04-01T19:35:48.297Z,85.58
2023-04-01T19:38:20.609Z,84.77
2023-04-01T19:40:54.430Z,84.48
2023-04-01T19:43:36.705Z,84.28
2023-04-01T19:46:15.309Z,84.65
2023-04-01T19:48:55.438Z,85.10
2023-04-01T19:51:30.139Z,85.10
2023-04-01T19:54:05.130Z,85.19
2023-04-01T19:56:40.243Z,84.49
2023-04-01T19:59:20.539Z,84.75
2023-04-01T20:01:54.128Z,85.05
2023-04-01T20:04:27.959Z,84.85
2023-04-01T20:07:00.976Z,84.80
2023-04-01T20:09:46.633Z,84.86
2023-04-01T20:12:25.728Z,85.71
2023-04-01T20:14:57.435Z,86.05
2023-04-01T20:17:27.899Z,85.59
2023-04-01T20:20:00.511Z,85.68
2023-04-01T20:22:39.812Z,85.76
2023-04-01T20:25:16.337Z,86.26
2023-04-01T20:27:51.240Z,86.26
2023-04-01T20:30:45.938Z,86.24
2023-04-01T20:33:43.471Z,85.92
2023-04-01T20:36:21.880Z,86.54
2023-04-01T20:39:26.136Z,86.56
2023-04-01T20:42:17.582Z,86.66
2023-04-01T20:44:53.376Z,86.53
2023-04-01T20:47:36.525Z,86.20
2023-04-01T20:50:16.225Z,86.12
2023-04-01T20:52:50.735Z,86.00
2023-04-01T20:55:40.614Z,86.24
2023-04-01T20:58:21.531Z,86.63
2023-04-01T21:01:01.388Z,86.34
2023-04-01T21:03:41.808Z,86.74
2023-04-01T21:06:19.921Z,86.38
2023-04-01T21:08:57.553Z,86.61
2023-04-01T21:11:35.344Z,86.90
2023-04-01T21:14:29.219Z,86.90
2023-04-01T21:17:09.696Z,86.58
2023-04-01T21:19:58.595Z,87.42
2023-04-01T21:22:48.326Z,87.87
2023-04-01T21:25:52.042Z,87.40
2023-04-01T21:28:34.387Z,87.39
2023-04-01T21:31:22.888Z,87.21
2023-04-01T21:34:36.741Z,87.72
2023-04-01T21:37:23.280Z,87.45
2023-04-01T21:40:14.973Z,87.24
2023-04-01T21:42:49.635Z,86.98
2023-04-01T21:45:47.520Z,87.08
2023-04-01T21:48:39.040Z,87.14
2023-04-01T21:51:35.748Z,86.92
2023-04-01T21:54:47.581Z,86.94
2023-04-01T21:58:01.566Z,86.46
2023-04-01T22:00:34.051Z,86.91
2023-04-01T22:03:50.068Z,86.82
2023-04-01T22:06:27.643Z,87.98
2023-04-01T22:09:03.615Z,88.72
2023-04-01T22:11:43.783Z,88.61
2023-04-01T22:14:21.926Z,88.03
2023-04-01T22:16:56.036Z,88.01
2023-04-01T22:19:31.517Z,87.56
2023-04-01T22:22:15.377Z,87.35
2023-04-01T22:24:51.489Z,87.03
2023-04-01T22:27:25.173Z,87.04
2023-04-01T22:30:04.194Z,87.17
2023-04-01T22:32:40.392Z,87.38
2023-04-01T22:35:14.546Z,87.15
2023-04-01T22:37:54.686Z,87.02
2023-04-01T22:40:26.691Z,87.35
2023-04-01T22:42:59.888Z,86.51
2023-04-01T22:46:00.706Z,86.37
2023-04-01T22:48:34.343Z,86.30
2023-04-01T22:51:08.735Z,86.88
2023-04-01T22:53:57.841Z,87.07
2023-04-01T22:56:30.206Z,88.17
2023-04-01T22:59:05.155Z,87.94
2023-04-01T23:01:41.213Z,87.09
2023-04-01T23:04:13.660Z,87.33
2023-04-01T23:06:45.532Z,86.86
2023-04-01T23:09:19.398Z,87.12
2023-04-01T23:11:51.688Z,88.03
2023-04-01T23:14:40.423Z,88.01
2023-04-01T23:17:29.514Z,87.59
2023-04-01T23:20:04.951Z,88.68
2023-04-01T23:22:37.207Z,88.22
2023-04-01T23:25:24.353Z,88.05
2023-04-01T23:27:56.687Z,88.05
2023-04-01T23:30:49.489Z,88.68
2023-04-01T23:33:24.194Z,88.53
2023-04-01T23:35:54.058Z,88.13
2023-04-01T23:38:24.908Z,88.88
2023-04-01T23:40:56.259Z,89.38
2023-04-01T23:43:28.365Z,89.01
2023-04-01T23:45:57.106Z,88.36
2023-04-01T23:48:28.797Z,88.12
2023-04-01T23:50:58.172Z,88.02
2023-04-01T23:53:29.292Z,88.62
2023-04-01T23:55:58.937Z,88.70
2023-04-01T23:58:38.695Z,88.56
